EDT,Max TemperatureF,Mean TemperatureF,Min TemperatureF,Max Dew PointF,MeanDew PointF,Min DewpointF,Max Humidity, Mean Humidity, Min Humidity, Max Sea Level PressureIn, Mean Sea Level PressureIn, Min Sea Level PressureIn, Max VisibilityMiles, Mean VisibilityMiles, Min VisibilityMiles, Max Wind SpeedMPH, Mean Wind SpeedMPH, Max Gust SpeedMPH,PrecipitationIn, CloudCover, Events, WindDirDegrees
2013-3-1,51,42,34,36,30,26,79,61,38,29.92,29.88,29.83,10,10,10,14,5,21,0.00,4,,281
2013-3-2,50,40,30,32,29,26,92,64,39,29.93,29.88,29.81,10,10,10,9,4,,0.00,4,,319
2013-3-3,46,38,30,28,23,20,79,58,34,29.97,29.91,29.85,10,10,10,13,5,18,0.00,1,,315
2013-3-4,48,38,28,24,18,14,76,49,27,30.13,30.06,29.98,10,10,7,15,7,22,0.00,0,,308
2013-3-5,59,44,30,53,37,23,81,64,41,30.14,30.00,29.67,10,10,6,15,6,22,0.03,5,Rain,219
2013-3-6,57,49,41,54,36,24,89,64,41,29.93,29.67,29.52,10,9,6,26,16,39,0.08,6,Rain,287
2013-3-7,55,46,37,30,28,26,70,53,35,30.19,30.10,29.95,10,10,10,16,11,26,0.00,0,,328
2013-3-8,54,45,36,27,24,22,64,46,29,30.24,30.18,30.10,10,10,7,21,8,31,0.00,0,,332
2013-3-9,63,50,37,37,29,24,79,52,28,30.31,30.27,30.23,10,10,10,14,6,21,0.00,0,,350
2013-3-10,57,44,30,46,37,24,89,72,28,30.33,30.30,30.26,10,9,2,9,4,,0.00,0,,83
2013-3-11,66,55,44,54,48,41,93,78,56,30.28,30.18,30.03,10,7,1,15,7,38,0.00,5,,107
2013-3-12,63,60,57,61,57,54,96,91,78,30.01,29.90,29.81,10,5,2,16,10,23,0.60,6,Rain,204
2013-3-13,60,53,46,44,35,24,80,53,25,30.07,30.00,29.91,10,10,10,13,8,18,0.00,3,,317
2013-3-14,52,43,34,30,21,16,70,44,27,30.23,30.16,30.09,10,10,10,13,9,23,0.00,1,,315
2013-3-15,55,42,28,45,29,17,82,55,25,30.22,30.12,29.99,10,10,10,17,6,24,0.00,0,,258
2013-3-16,66,59,54,50,48,45,80,71,56,29.98,29.87,29.77,10,9,7,18,11,30,0.00,1,,235
2013-3-17,62,55,48,52,47,39,86,76,60,30.17,30.02,29.88,10,9,7,17,9,21,0.00,4,,66
2013-3-18,64,55,48,54,48,41,94,82,67,30.15,30.07,29.93,10,10,7,13,9,20,0.00,5,,55
2013-3-19,69,60,46,57,52,39,100,83,35,29.99,29.86,29.77,10,8,2,12,5,20,0.39,5,Rain-Thunderstorm,294
2013-3-20,57,49,41,36,23,11,67,38,16,30.12,30.00,29.84,10,10,9,10,6,20,0.00,3,,8
2013-3-21,53,41,30,31,25,13,89,55,30,29.98,29.79,29.71,10,10,10,15,5,23,0.00,1,,330
2013-3-22,46,36,27,33,20,11,61,47,26,30.11,30.05,29.99,10,10,8,10,5,18,0.00,1,,274
2013-3-23,55,44,35,37,32,25,83,61,34,30.07,30.02,29.94,10,10,8,8,2,,0.00,3,,246
2013-3-24,57,50,42,54,44,34,93,84,56,29.94,29.69,29.43,10,7,2,25,10,31,0.31,7,Rain,43
2013-3-25,50,46,42,42,37,25,93,73,42,29.83,29.62,29.54,10,9,2,16,7,29,0.00,7,,283
2013-3-26,50,42,36,32,27,24,65,54,41,30.09,29.95,29.84,10,10,10,12,7,21,0.00,3,,288
2013-3-27,55,46,36,30,25,21,68,49,28,30.22,30.15,30.10,10,10,10,15,6,23,0.00,1,,312
2013-3-28,57,44,33,32,25,22,70,49,27,30.27,30.21,30.16,10,10,10,12,6,20,0.00,2,,316
2013-3-29,57,46,34,40,30,23,70,53,27,30.35,30.29,30.23,10,10,10,16,7,22,0.00,0,,284
2013-3-30,64,54,44,44,40,36,86,65,38,30.26,30.21,30.16,10,10,9,9,3,18,0.00,4,,257
2013-3-31,64,54,46,54,50,43,90,79,67,30.16,30.00,29.89,10,9,6,24,6,36,0.03,4,Rain,209